sensor_id;sensor_type;location;lat;lon;timestamp;P1;durP1;ratioP1;P2;durP2;ratioP2
32637;SDS011;19045;52.268;10.506;2023-05-29T00:00:58;11.65;;;5.78;;
32637;SDS011;19045;52.268;10.506;2023-05-29T00:03:26;9.25;;;4.68;;
32637;SDS011;19045;52.268;10.506;2023-05-29T00:05:54;13.10;;;4.63;;
32637;SDS011;19045;52.268;10.506;2023-05-29T00:08:20;13.00;;;4.63;;
32637;SDS011;19045;52.268;10.506;2023-05-29T00:10:47;17.20;;;8.70;;
32637;SDS011;19045;52.268;10.506;2023-05-29T00:13:14;17.75;;;11.02;;
32637;SDS011;19045;52.268;10.506;2023-05-29T00:15:40;14.32;;;6.90;;
32637;SDS011;19045;52.268;10.506;2023-05-29T00:18:07;10.88;;;6.10;;
32637;SDS011;19045;52.268;10.506;2023-05-29T00:20:33;13.07;;;8.45;;
32637;SDS011;19045;52.268;10.506;2023-05-29T00:23:02;21.42;;;12.40;;
32637;SDS011;19045;52.268;10.506;2023-05-29T00:25:30;13.43;;;8.80;;
32637;SDS011;19045;52.268;10.506;2023-05-29T00:27:57;13.63;;;6.85;;
32637;SDS011;19045;52.268;10.506;2023-05-29T00:30:24;9.77;;;5.00;;
32637;SDS011;19045;52.268;10.506;2023-05-29T00:32:53;8.40;;;4.32;;
32637;SDS011;19045;52.268;10.506;2023-05-29T00:35:19;15.27;;;8.10;;
32637;SDS011;19045;52.268;10.506;2023-05-29T00:37:46;15.68;;;6.85;;
32637;SDS011;19045;52.268;10.506;2023-05-29T00:40:14;10.88;;;5.97;;
32637;SDS011;19045;52.268;10.506;2023-05-29T00:42:41;10.60;;;5.22;;
32637;SDS011;19045;52.268;10.506;2023-05-29T00:45:12;8.00;;;4.82;;
32637;SDS011;19045;52.268;10.506;2023-05-29T00:47:39;10.43;;;4.53;;
32637;SDS011;19045;52.268;10.506;2023-05-29T00:50:08;10.15;;;4.53;;
32637;SDS011;19045;52.268;10.506;2023-05-29T00:52:38;11.00;;;4.75;;
32637;SDS011;19045;52.268;10.506;2023-05-29T00:55:07;9.77;;;4.75;;
32637;SDS011;19045;52.268;10.506;2023-05-29T00:57:36;10.00;;;4.07;;
32637;SDS011;19045;52.268;10.506;2023-05-29T01:00:04;10.18;;;4.38;;
32637;SDS011;19045;52.268;10.506;2023-05-29T01:02:37;10.95;;;5.40;;
32637;SDS011;19045;52.268;10.506;2023-05-29T01:05:04;11.07;;;4.93;;
32637;SDS011;19045;52.268;10.506;2023-05-29T01:07:31;11.07;;;4.97;;
32637;SDS011;19045;52.268;10.506;2023-05-29T01:09:58;7.90;;;4.78;;
32637;SDS011;19045;52.268;10.506;2023-05-29T01:12:28;12.05;;;5.60;;
32637;SDS011;19045;52.268;10.506;2023-05-29T01:18:00;9.23;;;4.68;;
32637;SDS011;19045;52.268;10.506;2023-05-29T01:20:35;7.80;;;4.65;;
32637;SDS011;19045;52.268;10.506;2023-05-29T01:23:08;13.68;;;4.95;;
32637;SDS011;19045;52.268;10.506;2023-05-29T01:25:56;7.82;;;4.40;;
32637;SDS011;19045;52.268;10.506;2023-05-29T01:28:36;9.93;;;4.30;;
32637;SDS011;19045;52.268;10.506;2023-05-29T01:31:07;10.05;;;4.93;;
32637;SDS011;19045;52.268;10.506;2023-05-29T01:33:38;7.25;;;4.00;;
32637;SDS011;19045;52.268;10.506;2023-05-29T01:36:07;8.05;;;3.97;;
32637;SDS011;19045;52.268;10.506;2023-05-29T01:38:34;8.32;;;4.50;;
32637;SDS011;19045;52.268;10.506;2023-05-29T01:41:01;6.20;;;3.38;;
32637;SDS011;19045;52.268;10.506;2023-05-29T01:43:28;6.13;;;3.90;;
32637;SDS011;19045;52.268;10.506;2023-05-29T01:45:56;9.27;;;3.50;;
32637;SDS011;19045;52.268;10.506;2023-05-29T01:48:24;8.63;;;4.25;;
32637;SDS011;19045;52.268;10.506;2023-05-29T01:50:51;7.47;;;3.65;;
32637;SDS011;19045;52.268;10.506;2023-05-29T01:53:18;7.68;;;3.67;;
32637;SDS011;19045;52.268;10.506;2023-05-29T01:55:45;9.40;;;4.18;;
32637;SDS011;19045;52.268;10.506;2023-05-29T01:58:11;7.50;;;3.58;;
32637;SDS011;19045;52.268;10.506;2023-05-29T02:00:40;8.93;;;4.45;;
32637;SDS011;19045;52.268;10.506;2023-05-29T02:03:08;6.90;;;3.45;;
32637;SDS011;19045;52.268;10.506;2023-05-29T02:05:34;9.15;;;3.45;;
32637;SDS011;19045;52.268;10.506;2023-05-29T02:08:01;8.65;;;4.75;;
32637;SDS011;19045;52.268;10.506;2023-05-29T02:10:27;7.30;;;3.60;;
32637;SDS011;19045;52.268;10.506;2023-05-29T02:12:55;7.78;;;4.03;;
32637;SDS011;19045;52.268;10.506;2023-05-29T02:15:22;9.77;;;3.58;;
32637;SDS011;19045;52.268;10.506;2023-05-29T02:17:49;8.45;;;3.70;;
32637;SDS011;19045;52.268;10.506;2023-05-29T02:20:18;8.95;;;3.58;;
32637;SDS011;19045;52.268;10.506;2023-05-29T02:22:44;9.55;;;3.95;;
32637;SDS011;19045;52.268;10.506;2023-05-29T02:25:11;7.85;;;3.10;;
32637;SDS011;19045;52.268;10.506;2023-05-29T02:27:38;5.82;;;3.33;;
32637;SDS011;19045;52.268;10.506;2023-05-29T02:30:05;8.45;;;3.97;;
32637;SDS011;19045;52.268;10.506;2023-05-29T02:32:33;5.63;;;3.72;;
32637;SDS011;19045;52.268;10.506;2023-05-29T02:35:00;9.75;;;4.00;;
32637;SDS011;19045;52.268;10.506;2023-05-29T02:37:27;6.68;;;3.55;;
32637;SDS011;19045;52.268;10.506;2023-05-29T02:39:55;6.78;;;3.78;;
32637;SDS011;19045;52.268;10.506;2023-05-29T02:42:22;5.85;;;4.20;;
32637;SDS011;19045;52.268;10.506;2023-05-29T02:44:51;7.18;;;3.38;;
32637;SDS011;19045;52.268;10.506;2023-05-29T02:47:18;6.90;;;4.05;;
32637;SDS011;19045;52.268;10.506;2023-05-29T02:49:44;6.95;;;3.22;;
32637;SDS011;19045;52.268;10.506;2023-05-29T02:52:11;5.93;;;3.92;;
32637;SDS011;19045;52.268;10.506;2023-05-29T02:54:39;7.93;;;3.78;;
32637;SDS011;19045;52.268;10.506;2023-05-29T02:57:05;7.28;;;3.90;;
32637;SDS011;19045;52.268;10.506;2023-05-29T02:59:32;6.60;;;3.78;;
32637;SDS011;19045;52.268;10.506;2023-05-29T03:02:02;9.43;;;4.13;;
32637;SDS011;19045;52.268;10.506;2023-05-29T03:04:28;6.50;;;4.00;;
32637;SDS011;19045;52.268;10.506;2023-05-29T03:06:55;6.40;;;3.60;;
32637;SDS011;19045;52.268;10.506;2023-05-29T03:09:22;7.72;;;3.33;;
32637;SDS011;19045;52.268;10.506;2023-05-29T03:11:50;5.47;;;3.28;;
32637;SDS011;19045;52.268;10.506;2023-05-29T03:14:17;6.65;;;3.47;;
32637;SDS011;19045;52.268;10.506;2023-05-29T03:16:44;6.00;;;3.00;;
32637;SDS011;19045;52.268;10.506;2023-05-29T03:19:14;6.68;;;3.58;;
32637;SDS011;19045;52.268;10.506;2023-05-29T03:21:41;8.10;;;3.38;;
32637;SDS011;19045;52.268;10.506;2023-05-29T03:24:07;5.90;;;3.35;;
32637;SDS011;19045;52.268;10.506;2023-05-29T03:26:35;7.63;;;3.30;;
32637;SDS011;19045;52.268;10.506;2023-05-29T03:29:03;7.65;;;3.33;;
32637;SDS011;19045;52.268;10.506;2023-05-29T03:31:30;8.60;;;3.33;;
32637;SDS011;19045;52.268;10.506;2023-05-29T03:33:57;11.27;;;3.60;;
32637;SDS011;19045;52.268;10.506;2023-05-29T03:36:27;6.18;;;3.30;;
32637;SDS011;19045;52.268;10.506;2023-05-29T03:38:53;8.20;;;3.65;;
32637;SDS011;19045;52.268;10.506;2023-05-29T03:41:20;6.85;;;3.65;;
32637;SDS011;19045;52.268;10.506;2023-05-29T03:43:47;8.65;;;3.97;;
32637;SDS011;19045;52.268;10.506;2023-05-29T03:46:15;5.50;;;3.38;;
32637;SDS011;19045;52.268;10.506;2023-05-29T03:48:41;6.07;;;3.17;;
32637;SDS011;19045;52.268;10.506;2023-05-29T03:51:08;7.68;;;3.92;;
32637;SDS011;19045;52.268;10.506;2023-05-29T03:53:35;5.97;;;3.10;;
32637;SDS011;19045;52.268;10.506;2023-05-29T03:56:01;5.03;;;3.22;;
32637;SDS011;19045;52.268;10.506;2023-05-29T03:58:28;6.35;;;3.63;;
32637;SDS011;19045;52.268;10.506;2023-05-29T04:00:55;8.05;;;3.33;;
32637;SDS011;19045;52.268;10.506;2023-05-29T04:03:23;8.43;;;3.13;;
32637;SDS011;19045;52.268;10.506;2023-05-29T04:05:49;6.60;;;3.35;;
32637;SDS011;19045;52.268;10.506;2023-05-29T04:08:16;7.85;;;3.17;;
32637;SDS011;19045;52.268;10.506;2023-05-29T04:10:44;5.60;;;2.97;;
32637;SDS011;19045;52.268;10.506;2023-05-29T04:13:11;4.50;;;2.97;;
32637;SDS011;19045;52.268;10.506;2023-05-29T04:15:38;5.90;;;3.55;;
32637;SDS011;19045;52.268;10.506;2023-05-29T04:18:04;13.05;;;3.33;;
32637;SDS011;19045;52.268;10.506;2023-05-29T04:20:32;8.70;;;3.40;;
32637;SDS011;19045;52.268;10.506;2023-05-29T04:22:59;10.52;;;3.45;;
32637;SDS011;19045;52.268;10.506;2023-05-29T04:25:29;10.18;;;3.47;;
32637;SDS011;19045;52.268;10.506;2023-05-29T04:27:58;10.98;;;3.30;;
32637;SDS011;19045;52.268;10.506;2023-05-29T04:30:27;5.10;;;3.20;;
32637;SDS011;19045;52.268;10.506;2023-05-29T04:32:54;7.18;;;2.90;;
32637;SDS011;19045;52.268;10.506;2023-05-29T04:35:21;6.07;;;3.35;;
32637;SDS011;19045;52.268;10.506;2023-05-29T04:37:49;13.80;;;3.60;;
32637;SDS011;19045;52.268;10.506;2023-05-29T04:40:16;9.35;;;3.20;;
32637;SDS011;19045;52.268;10.506;2023-05-29T04:42:43;7.97;;;2.92;;
32637;SDS011;19045;52.268;10.506;2023-05-29T04:45:10;7.38;;;3.35;;
32637;SDS011;19045;52.268;10.506;2023-05-29T04:47:37;8.85;;;3.10;;
32637;SDS011;19045;52.268;10.506;2023-05-29T04:50:08;11.30;;;2.88;;
32637;SDS011;19045;52.268;10.506;2023-05-29T04:52:36;8.30;;;3.10;;
32637;SDS011;19045;52.268;10.506;2023-05-29T04:55:04;11.13;;;3.25;;
32637;SDS011;19045;52.268;10.506;2023-05-29T04:57:32;7.75;;;3.10;;
32637;SDS011;19045;52.268;10.506;2023-05-29T04:59:58;8.05;;;2.60;;
32637;SDS011;19045;52.268;10.506;2023-05-29T05:02:25;7.95;;;2.60;;
32637;SDS011;19045;52.268;10.506;2023-05-29T05:04:51;8.95;;;3.00;;
32637;SDS011;19045;52.268;10.506;2023-05-29T05:07:20;13.00;;;3.60;;
32637;SDS011;19045;52.268;10.506;2023-05-29T05:09:47;8.50;;;3.10;;
32637;SDS011;19045;52.268;10.506;2023-05-29T05:12:15;12.27;;;3.10;;
32637;SDS011;19045;52.268;10.506;2023-05-29T05:14:42;6.22;;;3.10;;
32637;SDS011;19045;52.268;10.506;2023-05-29T05:17:08;8.50;;;3.22;;
32637;SDS011;19045;52.268;10.506;2023-05-29T05:19:35;7.88;;;3.15;;
32637;SDS011;19045;52.268;10.506;2023-05-29T05:22:02;12.20;;;3.00;;
32637;SDS011;19045;52.268;10.506;2023-05-29T05:24:29;7.25;;;2.95;;
32637;SDS011;19045;52.268;10.506;2023-05-29T05:26:57;8.10;;;2.55;;
32637;SDS011;19045;52.268;10.506;2023-05-29T05:29:25;8.63;;;2.80;;
32637;SDS011;19045;52.268;10.506;2023-05-29T05:31:51;8.70;;;3.17;;
32637;SDS011;19045;52.268;10.506;2023-05-29T05:34:18;8.23;;;3.10;;
32637;SDS011;19045;52.268;10.506;2023-05-29T05:36:45;10.85;;;3.25;;
32637;SDS011;19045;52.268;10.506;2023-05-29T05:39:12;7.05;;;2.70;;
32637;SDS011;19045;52.268;10.506;2023-05-29T05:41:39;10.82;;;3.88;;
32637;SDS011;19045;52.268;10.506;2023-05-29T05:44:06;10.32;;;3.50;;
32637;SDS011;19045;52.268;10.506;2023-05-29T05:46:34;12.40;;;3.90;;
32637;SDS011;19045;52.268;10.506;2023-05-29T05:49:00;10.98;;;3.95;;
32637;SDS011;19045;52.268;10.506;2023-05-29T05:51:27;11.98;;;3.40;;
32637;SDS011;19045;52.268;10.506;2023-05-29T05:53:53;8.70;;;2.95;;
32637;SDS011;19045;52.268;10.506;2023-05-29T05:56:20;8.40;;;3.13;;
32637;SDS011;19045;52.268;10.506;2023-05-29T05:58:47;12.57;;;3.63;;
32637;SDS011;19045;52.268;10.506;2023-05-29T06:01:15;12.63;;;3.60;;
32637;SDS011;19045;52.268;10.506;2023-05-29T06:03:43;9.55;;;3.80;;
32637;SDS011;19045;52.268;10.506;2023-05-29T06:06:09;13.65;;;3.17;;
32637;SDS011;19045;52.268;10.506;2023-05-29T06:08:36;8.40;;;2.92;;
32637;SDS011;19045;52.268;10.506;2023-05-29T06:11:03;8.32;;;3.30;;
32637;SDS011;19045;52.268;10.506;2023-05-29T06:13:29;14.27;;;3.28;;
32637;SDS011;19045;52.268;10.506;2023-05-29T06:15:56;16.38;;;3.42;;
32637;SDS011;19045;52.268;10.506;2023-05-29T06:18:23;8.63;;;3.17;;
32637;SDS011;19045;52.268;10.506;2023-05-29T06:20:51;9.93;;;2.83;;
32637;SDS011;19045;52.268;10.506;2023-05-29T06:23:17;11.23;;;3.13;;
32637;SDS011;19045;52.268;10.506;2023-05-29T06:25:44;11.35;;;3.67;;
32637;SDS011;19045;52.268;10.506;2023-05-29T06:28:10;8.48;;;2.72;;
32637;SDS011;19045;52.268;10.506;2023-05-29T06:30:38;10.40;;;3.15;;
32637;SDS011;19045;52.268;10.506;2023-05-29T06:33:05;10.77;;;3.47;;
32637;SDS011;19045;52.268;10.506;2023-05-29T06:35:31;9.52;;;3.20;;
32637;SDS011;19045;52.268;10.506;2023-05-29T06:37:59;10.60;;;3.17;;
32637;SDS011;19045;52.268;10.506;2023-05-29T06:40:26;9.85;;;3.22;;
32637;SDS011;19045;52.268;10.506;2023-05-29T06:42:53;9.15;;;2.88;;
32637;SDS011;19045;52.268;10.506;2023-05-29T06:45:19;10.13;;;3.58;;
32637;SDS011;19045;52.268;10.506;2023-05-29T06:47:46;9.00;;;3.40;;
32637;SDS011;19045;52.268;10.506;2023-05-29T06:50:13;9.90;;;3.47;;
32637;SDS011;19045;52.268;10.506;2023-05-29T06:52:40;12.80;;;3.00;;
32637;SDS011;19045;52.268;10.506;2023-05-29T06:55:10;12.68;;;3.35;;
32637;SDS011;19045;52.268;10.506;2023-05-29T06:57:37;11.80;;;3.50;;
32637;SDS011;19045;52.268;10.506;2023-05-29T07:00:04;9.48;;;2.72;;
32637;SDS011;19045;52.268;10.506;2023-05-29T07:02:32;18.25;;;3.35;;
32637;SDS011;19045;52.268;10.506;2023-05-29T07:04:59;13.02;;;3.45;;
32637;SDS011;19045;52.268;10.506;2023-05-29T07:07:26;10.13;;;3.20;;
32637;SDS011;19045;52.268;10.506;2023-05-29T07:09:55;12.27;;;3.40;;
32637;SDS011;19045;52.268;10.506;2023-05-29T07:12:24;7.63;;;2.55;;
32637;SDS011;19045;52.268;10.506;2023-05-29T07:14:51;11.10;;;2.95;;
32637;SDS011;19045;52.268;10.506;2023-05-29T07:17:18;10.23;;;2.85;;
32637;SDS011;19045;52.268;10.506;2023-05-29T07:19:44;11.20;;;2.85;;
32637;SDS011;19045;52.268;10.506;2023-05-29T07:22:11;8.88;;;2.80;;
32637;SDS011;19045;52.268;10.506;2023-05-29T07:24:38;13.05;;;3.08;;
32637;SDS011;19045;52.268;10.506;2023-05-29T07:27:05;10.77;;;2.97;;
32637;SDS011;19045;52.268;10.506;2023-05-29T07:29:34;9.43;;;2.75;;
32637;SDS011;19045;52.268;10.506;2023-05-29T07:32:00;13.35;;;2.80;;
32637;SDS011;19045;52.268;10.506;2023-05-29T07:34:27;10.13;;;2.97;;
32637;SDS011;19045;52.268;10.506;2023-05-29T07:36:57;11.35;;;2.67;;
32637;SDS011;19045;52.268;10.506;2023-05-29T07:41:52;10.25;;;2.97;;
32637;SDS011;19045;52.268;10.506;2023-05-29T07:44:19;9.60;;;3.10;;
32637;SDS011;19045;52.268;10.506;2023-05-29T07:46:47;13.70;;;3.20;;
32637;SDS011;19045;52.268;10.506;2023-05-29T07:49:14;12.35;;;2.85;;
32637;SDS011;19045;52.268;10.506;2023-05-29T07:51:41;10.25;;;3.03;;
32637;SDS011;19045;52.268;10.506;2023-05-29T07:54:07;8.50;;;2.50;;
32637;SDS011;19045;52.268;10.506;2023-05-29T07:56:34;13.27;;;2.90;;
32637;SDS011;19045;52.268;10.506;2023-05-29T07:59:02;12.50;;;2.78;;
32637;SDS011;19045;52.268;10.506;2023-05-29T08:01:28;9.45;;;2.95;;
32637;SDS011;19045;52.268;10.506;2023-05-29T08:03:56;8.77;;;2.45;;
32637;SDS011;19045;52.268;10.506;2023-05-29T08:06:23;7.53;;;2.30;;
32637;SDS011;19045;52.268;10.506;2023-05-29T08:08:49;11.30;;;2.75;;
32637;SDS011;19045;52.268;10.506;2023-05-29T08:11:17;13.82;;;3.28;;
32637;SDS011;19045;52.268;10.506;2023-05-29T08:13:44;11.57;;;3.03;;
32637;SDS011;19045;52.268;10.506;2023-05-29T08:16:10;11.13;;;2.60;;
32637;SDS011;19045;52.268;10.506;2023-05-29T08:18:39;14.65;;;3.35;;
32637;SDS011;19045;52.268;10.506;2023-05-29T08:21:07;17.02;;;3.50;;
32637;SDS011;19045;52.268;10.506;2023-05-29T08:23:35;10.48;;;2.70;;
32637;SDS011;19045;52.268;10.506;2023-05-29T08:26:02;15.40;;;3.08;;
32637;SDS011;19045;52.268;10.506;2023-05-29T08:28:28;10.43;;;2.88;;
32637;SDS011;19045;52.268;10.506;2023-05-29T08:30:55;9.93;;;3.38;;
32637;SDS011;19045;52.268;10.506;2023-05-29T08:33:22;9.35;;;2.40;;
32637;SDS011;19045;52.268;10.506;2023-05-29T08:35:48;10.20;;;3.42;;
32637;SDS011;19045;52.268;10.506;2023-05-29T08:38:16;9.77;;;2.95;;
32637;SDS011;19045;52.268;10.506;2023-05-29T08:40:43;14.20;;;3.47;;
32637;SDS011;19045;52.268;10.506;2023-05-29T08:43:13;13.98;;;5.28;;
32637;SDS011;19045;52.268;10.506;2023-05-29T08:45:42;10.68;;;4.22;;
32637;SDS011;19045;52.268;10.506;2023-05-29T08:48:10;10.60;;;3.03;;
32637;SDS011;19045;52.268;10.506;2023-05-29T08:50:37;11.77;;;3.10;;
32637;SDS011;19045;52.268;10.506;2023-05-29T08:53:09;9.38;;;2.58;;
32637;SDS011;19045;52.268;10.506;2023-05-29T08:55:37;11.05;;;2.78;;
32637;SDS011;19045;52.268;10.506;2023-05-29T08:58:04;9.57;;;2.60;;
32637;SDS011;19045;52.268;10.506;2023-05-29T09:00:31;9.27;;;3.22;;
32637;SDS011;19045;52.268;10.506;2023-05-29T09:02:58;12.90;;;4.25;;
32637;SDS011;19045;52.268;10.506;2023-05-29T09:05:26;6.85;;;2.60;;
32637;SDS011;19045;52.268;10.506;2023-05-29T09:07:53;11.05;;;2.88;;
32637;SDS011;19045;52.268;10.506;2023-05-29T09:10:21;6.40;;;2.42;;
32637;SDS011;19045;52.268;10.506;2023-05-29T09:12:51;10.60;;;2.83;;
32637;SDS011;19045;52.268;10.506;2023-05-29T09:15:19;9.25;;;2.65;;
32637;SDS011;19045;52.268;10.506;2023-05-29T09:17:49;10.05;;;2.50;;
32637;SDS011;19045;52.268;10.506;2023-05-29T09:20:17;9.07;;;2.35;;
32637;SDS011;19045;52.268;10.506;2023-05-29T09:22:46;6.57;;;2.33;;
32637;SDS011;19045;52.268;10.506;2023-05-29T09:25:19;6.60;;;2.03;;
32637;SDS011;19045;52.268;10.506;2023-05-29T09:27:47;10.00;;;2.70;;
32637;SDS011;19045;52.268;10.506;2023-05-29T09:30:30;8.88;;;2.65;;
32637;SDS011;19045;52.268;10.506;2023-05-29T09:32:58;11.75;;;2.35;;
32637;SDS011;19045;52.268;10.506;2023-05-29T09:35:25;5.03;;;2.13;;
32637;SDS011;19045;52.268;10.506;2023-05-29T09:37:52;8.88;;;2.33;;
32637;SDS011;19045;52.268;10.506;2023-05-29T09:40:21;6.32;;;2.40;;
32637;SDS011;19045;52.268;10.506;2023-05-29T09:42:47;15.38;;;7.15;;
32637;SDS011;19045;52.268;10.506;2023-05-29T09:45:16;11.10;;;2.75;;
32637;SDS011;19045;52.268;10.506;2023-05-29T09:47:45;9.45;;;2.58;;
32637;SDS011;19045;52.268;10.506;2023-05-29T09:50:17;10.20;;;2.80;;
32637;SDS011;19045;52.268;10.506;2023-05-29T09:52:46;8.50;;;3.03;;
32637;SDS011;19045;52.268;10.506;2023-05-29T09:55:17;6.47;;;2.33;;
32637;SDS011;19045;52.268;10.506;2023-05-29T09:57:46;7.50;;;2.05;;
32637;SDS011;19045;52.268;10.506;2023-05-29T10:00:14;8.93;;;2.22;;
32637;SDS011;19045;52.268;10.506;2023-05-29T10:02:42;6.00;;;1.85;;
32637;SDS011;19045;52.268;10.506;2023-05-29T10:05:10;8.20;;;2.58;;
32637;SDS011;19045;52.268;10.506;2023-05-29T10:07:40;7.97;;;1.70;;
32637;SDS011;19045;52.268;10.506;2023-05-29T10:12:42;6.10;;;2.15;;
32637;SDS011;19045;52.268;10.506;2023-05-29T10:15:16;8.35;;;2.10;;
32637;SDS011;19045;52.268;10.506;2023-05-29T10:17:49;4.07;;;1.80;;
32637;SDS011;19045;52.268;10.506;2023-05-29T10:20:19;6.97;;;1.92;;
32637;SDS011;19045;52.268;10.506;2023-05-29T10:22:49;5.38;;;1.90;;
32637;SDS011;19045;52.268;10.506;2023-05-29T10:25:18;6.63;;;2.30;;
32637;SDS011;19045;52.268;10.506;2023-05-29T10:27:46;8.13;;;2.20;;
32637;SDS011;19045;52.268;10.506;2023-05-29T10:30:15;9.18;;;2.20;;
32637;SDS011;19045;52.268;10.506;2023-05-29T10:32:55;7.75;;;2.20;;
32637;SDS011;19045;52.268;10.506;2023-05-29T10:35:37;6.40;;;2.40;;
32637;SDS011;19045;52.268;10.506;2023-05-29T10:38:10;7.70;;;2.40;;
32637;SDS011;19045;52.268;10.506;2023-05-29T10:40:38;8.98;;;2.67;;
32637;SDS011;19045;52.268;10.506;2023-05-29T10:43:05;7.47;;;2.92;;
32637;SDS011;19045;52.268;10.506;2023-05-29T10:45:48;10.30;;;2.67;;
32637;SDS011;19045;52.268;10.506;2023-05-29T10:51:23;6.38;;;1.60;;
32637;SDS011;19045;52.268;10.506;2023-05-29T10:53:51;5.93;;;2.25;;
32637;SDS011;19045;52.268;10.506;2023-05-29T10:56:22;5.70;;;2.15;;
32637;SDS011;19045;52.268;10.506;2023-05-29T10:58:52;6.45;;;1.98;;
32637;SDS011;19045;52.268;10.506;2023-05-29T11:01:21;5.40;;;2.08;;
32637;SDS011;19045;52.268;10.506;2023-05-29T11:03:50;7.75;;;2.20;;
32637;SDS011;19045;52.268;10.506;2023-05-29T11:06:20;7.43;;;2.40;;
32637;SDS011;19045;52.268;10.506;2023-05-29T11:08:53;7.93;;;2.00;;
32637;SDS011;19045;52.268;10.506;2023-05-29T11:11:29;7.78;;;2.20;;
32637;SDS011;19045;52.268;10.506;2023-05-29T11:14:01;9.00;;;2.15;;
32637;SDS011;19045;52.268;10.506;2023-05-29T11:16:36;7.90;;;2.50;;
32637;SDS011;19045;52.268;10.506;2023-05-29T11:19:04;6.63;;;2.42;;
32637;SDS011;19045;52.268;10.506;2023-05-29T11:21:34;5.97;;;2.60;;
32637;SDS011;19045;52.268;10.506;2023-05-29T11:24:14;5.85;;;1.75;;
32637;SDS011;19045;52.268;10.506;2023-05-29T11:26:47;5.75;;;2.17;;
32637;SDS011;19045;52.268;10.506;2023-05-29T11:29:14;9.55;;;3.03;;
32637;SDS011;19045;52.268;10.506;2023-05-29T11:31:41;4.57;;;2.10;;
32637;SDS011;19045;52.268;10.506;2023-05-29T11:34:14;8.93;;;2.53;;
32637;SDS011;19045;52.268;10.506;2023-05-29T11:36:42;7.22;;;3.60;;
32637;SDS011;19045;52.268;10.506;2023-05-29T11:39:10;6.82;;;2.90;;
32637;SDS011;19045;52.268;10.506;2023-05-29T11:41:37;8.77;;;2.85;;
32637;SDS011;19045;52.268;10.506;2023-05-29T11:44:04;8.68;;;2.60;;
32637;SDS011;19045;52.268;10.506;2023-05-29T11:46:31;6.75;;;2.25;;
32637;SDS011;19045;52.268;10.506;2023-05-29T11:48:59;7.10;;;2.40;;
32637;SDS011;19045;52.268;10.506;2023-05-29T11:51:26;8.90;;;2.08;;
32637;SDS011;19045;52.268;10.506;2023-05-29T11:53:55;8.70;;;2.85;;
32637;SDS011;19045;52.268;10.506;2023-05-29T11:56:24;10.18;;;2.78;;
32637;SDS011;19045;52.268;10.506;2023-05-29T11:58:51;8.30;;;2.47;;
32637;SDS011;19045;52.268;10.506;2023-05-29T12:01:21;8.48;;;2.50;;
32637;SDS011;19045;52.268;10.506;2023-05-29T12:03:50;8.95;;;2.30;;
32637;SDS011;19045;52.268;10.506;2023-05-29T12:06:30;7.30;;;2.63;;
32637;SDS011;19045;52.268;10.506;2023-05-29T12:08:59;8.73;;;2.63;;
32637;SDS011;19045;52.268;10.506;2023-05-29T12:11:27;10.82;;;2.55;;
32637;SDS011;19045;52.268;10.506;2023-05-29T12:13:57;4.43;;;2.10;;
32637;SDS011;19045;52.268;10.506;2023-05-29T12:16:24;5.55;;;2.30;;
32637;SDS011;19045;52.268;10.506;2023-05-29T12:18:52;6.05;;;1.83;;
32637;SDS011;19045;52.268;10.506;2023-05-29T12:21:20;7.07;;;2.10;;
32637;SDS011;19045;52.268;10.506;2023-05-29T12:23:51;7.75;;;2.10;;
32637;SDS011;19045;52.268;10.506;2023-05-29T12:26:19;4.75;;;1.98;;
32637;SDS011;19045;52.268;10.506;2023-05-29T12:28:48;11.35;;;2.40;;
32637;SDS011;19045;52.268;10.506;2023-05-29T12:31:25;5.53;;;2.50;;
32637;SDS011;19045;52.268;10.506;2023-05-29T12:33:53;7.03;;;2.20;;
32637;SDS011;19045;52.268;10.506;2023-05-29T12:36:20;4.45;;;1.75;;
32637;SDS011;19045;52.268;10.506;2023-05-29T12:38:52;5.25;;;2.25;;
32637;SDS011;19045;52.268;10.506;2023-05-29T12:41:24;8.73;;;2.03;;
32637;SDS011;19045;52.268;10.506;2023-05-29T12:43:52;6.65;;;2.45;;
32637;SDS011;19045;52.268;10.506;2023-05-29T12:46:20;4.45;;;2.28;;
32637;SDS011;19045;52.268;10.506;2023-05-29T12:48:46;6.07;;;2.00;;
32637;SDS011;19045;52.268;10.506;2023-05-29T12:51:14;6.00;;;2.45;;
32637;SDS011;19045;52.268;10.506;2023-05-29T12:53:41;6.03;;;1.98;;
32637;SDS011;19045;52.268;10.506;2023-05-29T12:56:08;5.90;;;2.13;;
32637;SDS011;19045;52.268;10.506;2023-05-29T12:58:36;4.18;;;1.95;;
32637;SDS011;19045;52.268;10.506;2023-05-29T13:01:03;5.55;;;2.40;;
32637;SDS011;19045;52.268;10.506;2023-05-29T13:03:29;5.20;;;2.10;;
32637;SDS011;19045;52.268;10.506;2023-05-29T13:05:57;5.50;;;2.33;;
32637;SDS011;19045;52.268;10.506;2023-05-29T13:08:25;5.45;;;2.30;;
32637;SDS011;19045;52.268;10.506;2023-05-29T13:10:52;8.95;;;2.08;;
32637;SDS011;19045;52.268;10.506;2023-05-29T13:13:18;6.05;;;2.00;;
32637;SDS011;19045;52.268;10.506;2023-05-29T13:15:48;7.68;;;2.35;;
32637;SDS011;19045;52.268;10.506;2023-05-29T13:18:15;7.85;;;2.72;;
32637;SDS011;19045;52.268;10.506;2023-05-29T13:20:41;7.72;;;2.70;;
32637;SDS011;19045;52.268;10.506;2023-05-29T13:23:08;6.22;;;2.53;;
32637;SDS011;19045;52.268;10.506;2023-05-29T13:25:35;6.95;;;2.15;;
32637;SDS011;19045;52.268;10.506;2023-05-29T13:28:03;8.10;;;2.20;;
32637;SDS011;19045;52.268;10.506;2023-05-29T13:30:30;4.07;;;2.20;;
32637;SDS011;19045;52.268;10.506;2023-05-29T13:32:58;7.93;;;2.63;;
32637;SDS011;19045;52.268;10.506;2023-05-29T13:35:24;9.68;;;2.53;;
32637;SDS011;19045;52.268;10.506;2023-05-29T13:37:53;5.57;;;2.00;;
32637;SDS011;19045;52.268;10.506;2023-05-29T13:40:20;6.57;;;2.03;;
32637;SDS011;19045;52.268;10.506;2023-05-29T13:42:46;5.25;;;2.40;;
32637;SDS011;19045;52.268;10.506;2023-05-29T13:45:13;6.75;;;2.03;;
32637;SDS011;19045;52.268;10.506;2023-05-29T13:47:39;6.45;;;2.03;;
32637;SDS011;19045;52.268;10.506;2023-05-29T13:50:08;8.25;;;2.05;;
32637;SDS011;19045;52.268;10.506;2023-05-29T13:52:37;8.75;;;2.40;;
32637;SDS011;19045;52.268;10.506;2023-05-29T13:55:04;7.28;;;2.33;;
32637;SDS011;19045;52.268;10.506;2023-05-29T13:57:33;11.90;;;3.03;;
32637;SDS011;19045;52.268;10.506;2023-05-29T14:00:03;7.97;;;2.25;;
32637;SDS011;19045;52.268;10.506;2023-05-29T14:02:30;11.05;;;2.13;;
32637;SDS011;19045;52.268;10.506;2023-05-29T14:04:57;12.23;;;2.90;;
32637;SDS011;19045;52.268;10.506;2023-05-29T14:07:25;13.23;;;2.67;;
32637;SDS011;19045;52.268;10.506;2023-05-29T14:09:52;7.07;;;2.35;;
32637;SDS011;19045;52.268;10.506;2023-05-29T14:12:18;13.05;;;2.47;;
32637;SDS011;19045;52.268;10.506;2023-05-29T14:14:45;8.60;;;2.85;;
32637;SDS011;19045;52.268;10.506;2023-05-29T14:17:13;8.93;;;2.20;;
32637;SDS011;19045;52.268;10.506;2023-05-29T14:19:40;7.93;;;2.35;;
32637;SDS011;19045;52.268;10.506;2023-05-29T14:22:09;8.73;;;2.45;;
32637;SDS011;19045;52.268;10.506;2023-05-29T14:24:38;9.27;;;2.30;;
32637;SDS011;19045;52.268;10.506;2023-05-29T14:27:05;7.65;;;2.67;;
32637;SDS011;19045;52.268;10.506;2023-05-29T14:29:32;10.63;;;3.00;;
32637;SDS011;19045;52.268;10.506;2023-05-29T14:31:58;5.07;;;2.00;;
32637;SDS011;19045;52.268;10.506;2023-05-29T14:34:25;5.20;;;2.10;;
32637;SDS011;19045;52.268;10.506;2023-05-29T14:36:51;7.93;;;2.55;;
32637;SDS011;19045;52.268;10.506;2023-05-29T14:39:18;5.40;;;2.45;;
32637;SDS011;19045;52.268;10.506;2023-05-29T14:41:46;6.95;;;2.40;;
32637;SDS011;19045;52.268;10.506;2023-05-29T14:44:13;7.03;;;2.30;;
32637;SDS011;19045;52.268;10.506;2023-05-29T14:46:41;4.40;;;2.47;;